createdAt,value
2022-08-02T00:00:57.597Z,1.57
2022-08-02T00:03:25.244Z,1.40
2022-08-02T00:05:54.011Z,1.20
2022-08-02T00:08:23.463Z,1.27
2022-08-02T00:10:51.154Z,1.73
2022-08-02T00:13:18.713Z,1.40
2022-08-02T00:15:46.209Z,1.60
2022-08-02T00:18:13.731Z,1.43
2022-08-02T00:20:41.266Z,1.50
2022-08-02T00:23:08.792Z,1.87
2022-08-02T00:25:55.130Z,1.43
2022-08-02T00:28:27.401Z,1.33
2022-08-02T00:30:55.662Z,1.50
2022-08-02T00:34:05.138Z,1.30
2022-08-02T00:36:10.793Z,1.40
2022-08-02T00:38:38.507Z,1.50
2022-08-02T00:41:12.730Z,1.83
2022-08-02T00:43:40.442Z,1.70
2022-08-02T00:46:07.942Z,1.70
2022-08-02T00:48:35.552Z,1.87
2022-08-02T00:51:09.096Z,1.10
2022-08-02T00:53:36.633Z,1.57
2022-08-02T00:56:05.007Z,1.50
2022-08-02T00:58:33.846Z,1.40
2022-08-02T01:01:02.104Z,1.50
2022-08-02T01:03:29.734Z,2.00
2022-08-02T01:06:10.917Z,1.77
2022-08-02T01:08:39.309Z,1.67
2022-08-02T01:11:06.830Z,1.30
2022-08-02T01:13:35.712Z,1.97
2022-08-02T01:16:09.529Z,1.33
2022-08-02T01:18:40.157Z,1.70
2022-08-02T01:21:21.719Z,2.03
2022-08-02T01:23:58.668Z,1.50
2022-08-02T01:26:36.108Z,1.57
2022-08-02T01:29:08.595Z,1.80
2022-08-02T01:31:39.863Z,1.50
2022-08-02T01:34:14.590Z,1.63
2022-08-02T01:36:44.258Z,1.80
2022-08-02T01:39:26.923Z,2.03
2022-08-02T01:42:01.030Z,1.60
2022-08-02T01:44:32.944Z,1.50
2022-08-02T01:47:04.542Z,1.60
2022-08-02T01:49:33.701Z,2.10
2022-08-02T01:52:20.467Z,1.50
2022-08-02T01:54:50.649Z,1.87
2022-08-02T01:57:19.092Z,2.03
2022-08-02T01:59:48.219Z,1.73
2022-08-02T02:02:16.570Z,2.33
2022-08-02T02:04:45.308Z,1.80
2022-08-02T02:07:15.640Z,1.80
2022-08-02T02:09:49.280Z,1.70
2022-08-02T02:12:19.427Z,1.50
2022-08-02T02:14:51.931Z,2.20
2022-08-02T02:17:53.101Z,1.40
2022-08-02T02:20:11.071Z,1.70
2022-08-02T02:22:38.587Z,1.77
2022-08-02T02:25:07.734Z,1.70
2022-08-02T02:27:40.770Z,2.03
2022-08-02T02:30:14.318Z,1.70
2022-08-02T02:32:42.368Z,2.00
2022-08-02T02:35:11.634Z,1.60
2022-08-02T02:37:39.706Z,2.00
2022-08-02T02:40:09.208Z,2.10
2022-08-02T02:42:37.278Z,2.07
2022-08-02T02:45:10.990Z,1.67
2022-08-02T02:47:41.867Z,1.80
2022-08-02T02:50:10.520Z,1.80
2022-08-02T02:52:38.495Z,1.83
2022-08-02T02:55:08.004Z,1.70
2022-08-02T02:57:37.100Z,1.70
2022-08-02T03:00:06.855Z,2.27
2022-08-02T03:02:34.872Z,1.90
2022-08-02T03:05:04.132Z,1.80
2022-08-02T03:07:33.652Z,2.20
2022-08-02T03:10:01.243Z,1.87
2022-08-02T03:12:32.245Z,1.67
2022-08-02T03:15:01.503Z,1.73
2022-08-02T03:17:38.900Z,1.87
2022-08-02T03:20:11.613Z,2.07
2022-08-02T03:22:39.166Z,2.30
2022-08-02T03:25:07.970Z,1.83
2022-08-02T03:27:35.696Z,2.03
2022-08-02T03:30:03.275Z,2.00
2022-08-02T03:32:30.787Z,1.97
2022-08-02T03:34:58.371Z,1.63
2022-08-02T03:37:27.903Z,2.03
2022-08-02T03:39:55.738Z,2.00
2022-08-02T03:42:23.913Z,1.80
2022-08-02T03:44:51.860Z,1.90
2022-08-02T03:47:20.149Z,1.77
2022-08-02T03:49:47.824Z,2.37
2022-08-02T03:52:15.646Z,1.80
2022-08-02T03:54:45.243Z,1.80
2022-08-02T03:57:13.606Z,1.83
2022-08-02T03:59:42.828Z,1.73
2022-08-02T04:02:11.039Z,2.10
2022-08-02T04:04:39.063Z,2.00
2022-08-02T04:07:07.593Z,1.97
2022-08-02T04:09:35.443Z,2.53
2022-08-02T04:12:04.886Z,2.13
2022-08-02T04:14:36.247Z,2.33
2022-08-02T04:17:08.320Z,1.77
2022-08-02T04:19:39.709Z,2.30
2022-08-02T04:22:09.288Z,1.70
2022-08-02T04:24:40.401Z,2.07
2022-08-02T04:27:49.278Z,1.90
2022-08-02T04:29:58.135Z,2.20
2022-08-02T04:32:25.721Z,1.70
2022-08-02T04:35:18.176Z,2.10
2022-08-02T04:38:08.311Z,2.03
2022-08-02T04:40:29.173Z,2.27
2022-08-02T04:42:58.060Z,2.00
2022-08-02T04:45:26.277Z,2.03
2022-08-02T04:48:02.299Z,2.23
2022-08-02T04:50:31.765Z,2.23
2022-08-02T04:52:59.363Z,1.70
2022-08-02T04:55:28.930Z,2.20
2022-08-02T04:57:58.576Z,1.60
2022-08-02T05:00:26.937Z,2.33
2022-08-02T05:02:55.702Z,2.60
2022-08-02T05:05:23.287Z,2.23
2022-08-02T05:07:50.856Z,2.13
2022-08-02T05:10:18.550Z,2.73
2022-08-02T05:12:46.106Z,2.90
2022-08-02T05:15:17.980Z,2.37
2022-08-02T05:17:47.723Z,2.30
2022-08-02T05:20:16.284Z,2.37
2022-08-02T05:22:43.930Z,2.80
2022-08-02T05:25:11.778Z,2.47
2022-08-02T05:27:39.404Z,2.40
2022-08-02T05:30:08.403Z,2.80
2022-08-02T05:32:44.152Z,2.00
2022-08-02T05:35:11.671Z,2.40
2022-08-02T05:37:39.302Z,2.60
2022-08-02T05:40:12.728Z,2.33
2022-08-02T05:42:41.173Z,2.40
2022-08-02T05:45:09.456Z,2.70
2022-08-02T05:47:38.560Z,2.43
2022-08-02T05:50:07.992Z,2.40
2022-08-02T05:52:45.084Z,2.07
2022-08-02T05:55:18.827Z,2.50
2022-08-02T05:57:54.018Z,3.10
2022-08-02T06:00:22.919Z,2.93
2022-08-02T06:03:05.946Z,2.50
2022-08-02T06:05:35.877Z,2.83
2022-08-02T06:08:04.423Z,2.47
2022-08-02T06:10:36.477Z,2.93
2022-08-02T06:13:09.085Z,2.53
2022-08-02T06:15:39.007Z,2.43
2022-08-02T06:18:28.559Z,2.40
2022-08-02T06:20:57.807Z,2.73
2022-08-02T06:23:27.121Z,2.20
2022-08-02T06:25:58.828Z,2.73
2022-08-02T06:28:27.711Z,3.03
2022-08-02T06:30:55.679Z,2.50
2022-08-02T06:33:24.792Z,2.23
2022-08-02T06:35:57.718Z,3.00
2022-08-02T06:38:30.580Z,2.50
2022-08-02T06:41:02.841Z,2.43
2022-08-02T06:43:35.215Z,2.10
2022-08-02T06:46:57.432Z,2.73
2022-08-02T06:48:56.018Z,2.40
2022-08-02T06:51:24.156Z,2.30
2022-08-02T06:53:51.827Z,1.90
2022-08-02T06:56:19.725Z,2.30
2022-08-02T06:58:47.243Z,2.10
2022-08-02T07:01:14.794Z,1.83
2022-08-02T07:03:42.551Z,1.77
2022-08-02T07:06:11.921Z,2.10
2022-08-02T07:08:39.913Z,2.00
2022-08-02T07:11:08.083Z,1.80
2022-08-02T07:13:39.701Z,1.87
2022-08-02T07:16:08.355Z,2.20
2022-08-02T07:18:36.470Z,2.57
2022-08-02T07:21:05.328Z,2.50
2022-08-02T07:23:34.805Z,1.80
2022-08-02T07:26:05.346Z,1.77
2022-08-02T07:28:33.425Z,2.57
2022-08-02T07:31:01.062Z,1.90
2022-08-02T07:33:38.105Z,2.07
2022-08-02T07:36:08.822Z,1.93
2022-08-02T07:38:38.493Z,1.90
2022-08-02T07:41:08.525Z,2.23
2022-08-02T07:43:36.146Z,1.80
2022-08-02T07:46:03.664Z,2.87
2022-08-02T07:48:31.137Z,1.80
2022-08-02T07:50:58.619Z,2.03
2022-08-02T07:53:50.084Z,1.93
2022-08-02T07:56:14.876Z,2.27
2022-08-02T07:58:42.668Z,2.07
2022-08-02T08:01:10.278Z,1.90
2022-08-02T08:03:37.835Z,1.50
2022-08-02T08:06:05.472Z,1.63
2022-08-02T08:08:32.971Z,1.53
2022-08-02T08:11:01.552Z,1.53
2022-08-02T08:13:30.508Z,1.30
2022-08-02T08:15:57.965Z,1.20
2022-08-02T08:18:25.426Z,1.70
2022-08-02T08:20:52.868Z,1.53
2022-08-02T08:23:20.341Z,1.70
2022-08-02T08:25:48.347Z,2.37
2022-08-02T08:28:15.817Z,1.87
2022-08-02T08:30:44.612Z,1.40
2022-08-02T08:33:12.064Z,1.13
2022-08-02T08:35:39.835Z,1.60
2022-08-02T08:38:08.016Z,1.40
2022-08-02T08:40:36.951Z,1.43
2022-08-02T08:43:04.452Z,1.70
2022-08-02T08:45:31.925Z,1.87
2022-08-02T08:48:08.187Z,1.33
2022-08-02T08:50:36.810Z,1.83
2022-08-02T08:53:06.469Z,1.40
2022-08-02T08:55:35.626Z,1.70
2022-08-02T08:58:04.633Z,1.70
2022-08-02T09:00:33.805Z,1.10
2022-08-02T09:03:04.732Z,1.73
2022-08-02T09:05:32.365Z,1.40
2022-08-02T09:07:59.818Z,1.20
2022-08-02T09:10:38.942Z,1.50
2022-08-02T09:13:38.473Z,1.30
2022-08-02T09:16:00.941Z,1.00
2022-08-02T09:18:44.444Z,1.13
2022-08-02T09:21:13.134Z,1.20
2022-08-02T09:23:41.985Z,1.63
2022-08-02T09:26:10.864Z,1.27
2022-08-02T09:28:39.727Z,1.57
2022-08-02T09:31:11.333Z,1.30
2022-08-02T09:33:39.870Z,1.40
2022-08-02T09:36:12.210Z,1.07
2022-08-02T09:38:40.545Z,0.93
2022-08-02T09:41:21.287Z,1.07
2022-08-02T09:44:03.263Z,1.30
2022-08-02T09:46:37.263Z,1.00
2022-08-02T09:49:06.202Z,1.00
2022-08-02T09:51:36.847Z,1.30
2022-08-02T09:54:08.795Z,1.20
2022-08-02T09:56:47.366Z,1.23
2022-08-02T09:59:15.541Z,1.20
2022-08-02T10:01:50.559Z,1.10
2022-08-02T10:04:24.509Z,1.10
2022-08-02T10:06:54.997Z,1.23
2022-08-02T10:09:22.999Z,1.70
2022-08-02T10:11:50.697Z,1.10
2022-08-02T10:14:20.482Z,0.93
2022-08-02T10:16:47.998Z,1.37
2022-08-02T10:19:15.730Z,1.23
2022-08-02T10:21:46.919Z,1.00
2022-08-02T10:24:17.808Z,0.80
2022-08-02T10:26:46.444Z,0.90
2022-08-02T10:29:17.627Z,1.30
2022-08-02T10:31:48.660Z,0.80
2022-08-02T10:34:24.416Z,0.90
2022-08-02T10:37:02.831Z,0.80
2022-08-02T10:39:39.442Z,0.93
2022-08-02T10:42:07.209Z,0.93
2022-08-02T10:44:35.816Z,1.20
2022-08-02T10:47:23.981Z,1.43
2022-08-02T10:49:53.745Z,1.00
2022-08-02T10:52:22.385Z,0.80
2022-08-02T10:54:56.431Z,1.27
2022-08-02T10:57:25.719Z,1.20
2022-08-02T10:59:55.998Z,1.13
2022-08-02T11:02:38.925Z,1.10
2022-08-02T11:05:11.854Z,1.07
2022-08-02T11:07:41.281Z,0.80
2022-08-02T11:10:36.619Z,1.07
2022-08-02T11:13:08.198Z,1.07
2022-08-02T11:15:53.917Z,1.00
2022-08-02T11:18:22.561Z,1.17
2022-08-02T11:21:24.657Z,0.97
2022-08-02T11:23:52.684Z,1.10
2022-08-02T11:26:46.658Z,1.00
2022-08-02T11:29:15.819Z,1.23
2022-08-02T11:31:44.892Z,1.00
2022-08-02T11:34:36.953Z,1.07
2022-08-02T11:37:00.256Z,1.00
2022-08-02T11:39:27.964Z,1.30
2022-08-02T11:41:58.766Z,1.10
2022-08-02T11:44:27.195Z,1.00
2022-08-02T11:46:56.054Z,1.50
2022-08-02T11:49:23.645Z,1.13
2022-08-02T11:51:57.471Z,1.17
2022-08-02T11:54:26.698Z,1.03
2022-08-02T11:56:54.630Z,1.30
2022-08-02T11:59:23.537Z,1.30
2022-08-02T12:01:51.185Z,1.20
2022-08-02T12:04:22.965Z,1.20
2022-08-02T12:06:59.158Z,0.97
2022-08-02T12:09:27.990Z,1.30
2022-08-02T12:11:56.968Z,1.33
2022-08-02T12:14:28.687Z,1.40
2022-08-02T12:17:14.134Z,1.30
2022-08-02T12:19:43.234Z,1.30
2022-08-02T12:22:13.997Z,1.40
2022-08-02T12:24:43.659Z,1.40
2022-08-02T12:27:11.883Z,1.30
2022-08-02T12:29:58.045Z,1.27
2022-08-02T12:32:27.071Z,1.27
2022-08-02T12:35:07.458Z,1.20
2022-08-02T12:37:35.548Z,1.20
2022-08-02T12:40:25.399Z,1.33
2022-08-02T12:42:55.204Z,1.40
2022-08-02T12:45:24.376Z,1.50
2022-08-02T12:47:54.929Z,1.13
2022-08-02T12:50:25.722Z,1.33
2022-08-02T12:53:04.058Z,1.50
2022-08-02T12:56:00.863Z,1.40
2022-08-02T12:58:20.170Z,1.27
2022-08-02T13:00:55.506Z,1.10
2022-08-02T13:04:11.008Z,1.40
2022-08-02T13:06:41.306Z,1.30
2022-08-02T13:08:59.496Z,1.30
2022-08-02T13:11:27.992Z,1.30
2022-08-02T13:13:55.715Z,1.33
2022-08-02T13:16:31.075Z,1.30
2022-08-02T13:18:59.201Z,1.40
2022-08-02T13:21:40.878Z,1.40
2022-08-02T13:24:33.096Z,1.23
2022-08-02T13:27:04.658Z,1.07
2022-08-02T13:29:35.519Z,1.00
2022-08-02T13:32:04.547Z,1.00
2022-08-02T13:34:32.016Z,1.43
2022-08-02T13:36:59.527Z,1.10
2022-08-02T13:39:27.063Z,1.30
2022-08-02T13:41:55.092Z,1.20
2022-08-02T13:44:22.956Z,1.20
2022-08-02T13:46:50.470Z,1.13
2022-08-02T13:49:21.583Z,1.43
2022-08-02T13:51:49.923Z,1.10
2022-08-02T13:54:17.746Z,1.47
2022-08-02T13:56:45.358Z,1.50
2022-08-02T13:59:55.197Z,1.07
2022-08-02T14:02:00.679Z,1.33
2022-08-02T14:04:30.676Z,1.20
2022-08-02T14:06:59.208Z,1.07
2022-08-02T14:09:27.372Z,1.30
2022-08-02T14:11:55.017Z,1.30
2022-08-02T14:14:22.518Z,1.30
2022-08-02T14:16:50.055Z,1.20
2022-08-02T14:19:17.752Z,1.30
2022-08-02T14:21:47.911Z,1.00
2022-08-02T14:24:16.243Z,1.30
2022-08-02T14:26:43.840Z,1.37
2022-08-02T14:29:11.392Z,1.10
2022-08-02T14:31:43.645Z,1.07
2022-08-02T14:34:12.122Z,1.13
2022-08-02T14:36:42.833Z,0.83
2022-08-02T14:39:12.202Z,0.93
2022-08-02T14:42:00.037Z,1.10
2022-08-02T14:44:27.242Z,1.13
2022-08-02T14:46:54.870Z,1.10
2022-08-02T14:49:25.872Z,1.20
2022-08-02T14:51:54.793Z,1.10
2022-08-02T14:54:27.957Z,1.30
2022-08-02T14:56:58.420Z,1.13
2022-08-02T14:59:26.060Z,1.10
2022-08-02T15:01:54.143Z,1.10
2022-08-02T15:04:21.828Z,1.50
2022-08-02T15:06:49.523Z,1.20
2022-08-02T15:09:17.132Z,1.10
2022-08-02T15:11:47.540Z,1.20
2022-08-02T15:14:16.749Z,1.47
2022-08-02T15:16:56.138Z,1.33
2022-08-02T15:19:38.529Z,1.27
2022-08-02T15:22:16.274Z,1.20
2022-08-02T15:24:45.421Z,1.43
2022-08-02T15:27:29.249Z,1.13
2022-08-02T15:30:00.444Z,1.00
2022-08-02T15:32:28.623Z,1.20
2022-08-02T15:34:56.401Z,1.10
2022-08-02T15:37:24.158Z,1.30
2022-08-02T15:39:53.156Z,1.33
2022-08-02T15:42:21.107Z,1.27
2022-08-02T15:45:00.673Z,1.87
2022-08-02T15:47:30.902Z,1.20
2022-08-02T15:49:58.796Z,1.47
2022-08-02T15:52:26.638Z,1.47
2022-08-02T15:54:54.310Z,1.20
2022-08-02T15:57:21.918Z,1.27
2022-08-02T15:59:49.467Z,1.10
2022-08-02T16:02:19.036Z,1.43
2022-08-02T16:04:46.873Z,1.00
2022-08-02T16:07:14.568Z,1.13
2022-08-02T16:09:42.323Z,1.57
2022-08-02T16:12:10.791Z,1.67
2022-08-02T16:14:38.584Z,1.40
2022-08-02T16:17:06.192Z,1.30
2022-08-02T16:19:49.060Z,1.40
2022-08-02T16:22:17.474Z,1.50
2022-08-02T16:24:45.027Z,1.23
2022-08-02T16:27:12.681Z,1.67
2022-08-02T16:29:40.403Z,1.17
2022-08-02T16:32:08.072Z,1.30
2022-08-02T16:35:04.076Z,1.40
2022-08-02T16:37:24.603Z,1.40
2022-08-02T16:39:53.702Z,1.40
2022-08-02T16:42:25.634Z,1.13
2022-08-02T16:44:53.843Z,1.30
2022-08-02T16:47:36.962Z,1.40
2022-08-02T16:50:12.090Z,1.33
2022-08-02T16:52:41.883Z,1.20
2022-08-02T16:55:11.220Z,0.97
2022-08-02T16:57:43.459Z,1.30
2022-08-02T17:00:15.391Z,1.30
2022-08-02T17:02:43.264Z,1.20
2022-08-02T17:05:14.501Z,1.20
2022-08-02T17:08:08.500Z,1.43
2022-08-02T17:10:30.486Z,1.50
2022-08-02T17:12:58.400Z,1.13
2022-08-02T17:16:16.288Z,1.03
2022-08-02T17:18:30.212Z,1.30
2022-08-02T17:20:59.184Z,1.00
2022-08-02T17:23:47.152Z,1.20
2022-08-02T17:26:14.587Z,1.30
2022-08-02T17:29:15.430Z,1.23
2022-08-02T17:31:37.302Z,1.30
2022-08-02T17:34:11.285Z,1.30
2022-08-02T17:36:40.132Z,1.67
2022-08-02T17:39:07.741Z,1.63
2022-08-02T17:41:37.696Z,1.33
2022-08-02T17:44:08.594Z,1.40
2022-08-02T17:46:37.210Z,1.97
2022-08-02T17:49:23.811Z,1.30
2022-08-02T17:52:49.343Z,1.23
2022-08-02T17:54:40.624Z,1.57
2022-08-02T17:57:11.634Z,1.63
2022-08-02T17:59:42.490Z,1.43
2022-08-02T18:02:11.008Z,1.10
2022-08-02T18:04:38.942Z,1.43
2022-08-02T18:07:09.800Z,1.30
2022-08-02T18:09:39.559Z,1.80
2022-08-02T18:12:25.339Z,1.50
2022-08-02T18:14:55.158Z,1.97
2022-08-02T18:17:23.140Z,2.60
2022-08-02T18:19:57.194Z,3.27
2022-08-02T18:22:28.175Z,2.10
2022-08-02T18:24:55.633Z,3.10
2022-08-02T18:27:23.121Z,3.20
2022-08-02T18:30:00.355Z,2.03
2022-08-02T18:33:56.016Z,2.00
2022-08-02T18:35:20.141Z,1.27
2022-08-02T18:37:56.774Z,1.53
2022-08-02T18:40:25.158Z,1.73
2022-08-02T18:42:53.950Z,1.90
2022-08-02T18:45:22.381Z,1.80
2022-08-02T18:47:51.315Z,1.30
2022-08-02T18:50:19.671Z,1.10
2022-08-02T18:52:48.819Z,1.33
2022-08-02T18:55:17.429Z,1.60
2022-08-02T18:58:18.074Z,1.40
2022-08-02T19:00:51.779Z,1.37
2022-08-02T19:03:19.735Z,1.40
2022-08-02T19:05:52.229Z,1.57
2022-08-02T19:08:26.188Z,1.53
2022-08-02T19:10:55.213Z,0.93
2022-08-02T19:13:24.160Z,1.97
2022-08-02T19:15:52.297Z,1.70
2022-08-02T19:18:19.899Z,6.33
2022-08-02T19:20:58.288Z,2.80
2022-08-02T19:23:31.909Z,3.33
2022-08-02T19:25:59.556Z,1.43
2022-08-02T19:28:27.810Z,1.90
2022-08-02T19:30:55.733Z,2.73
2022-08-02T19:33:54.729Z,2.07
2022-08-02T19:36:11.854Z,1.87
2022-08-02T19:38:45.551Z,1.60
2022-08-02T19:41:17.039Z,1.63
2022-08-02T19:44:25.925Z,1.60
2022-08-02T19:46:37.309Z,1.30
2022-08-02T19:49:19.807Z,1.47
2022-08-02T19:51:56.713Z,1.77
2022-08-02T19:54:54.395Z,1.57
2022-08-02T19:57:17.033Z,1.80
2022-08-02T19:59:47.226Z,1.43
2022-08-02T20:02:15.716Z,4.13
2022-08-02T20:04:49.915Z,8.03
2022-08-02T20:07:54.356Z,7.70
2022-08-02T20:10:11.442Z,5.70
2022-08-02T20:12:39.803Z,3.77
2022-08-02T20:15:14.761Z,1.90
2022-08-02T20:17:47.525Z,2.43
2022-08-02T20:20:16.113Z,2.37
2022-08-02T20:22:57.634Z,2.63
2022-08-02T20:25:29.125Z,2.70
2022-08-02T20:27:56.860Z,2.77
2022-08-02T20:30:25.345Z,3.00
2022-08-02T20:32:58.842Z,2.70
2022-08-02T20:35:30.231Z,3.00
2022-08-02T20:38:04.886Z,1.90
2022-08-02T20:40:34.556Z,2.07
2022-08-02T20:43:02.411Z,2.10
2022-08-02T20:45:30.133Z,1.90
2022-08-02T20:48:01.256Z,1.60
2022-08-02T20:50:49.219Z,2.07
2022-08-02T20:53:23.314Z,2.93
2022-08-02T20:55:55.591Z,2.33
2022-08-02T20:58:27.278Z,1.53
2022-08-02T21:00:58.832Z,1.60
2022-08-02T21:03:39.411Z,1.90
2022-08-02T21:06:09.696Z,1.90
2022-08-02T21:08:38.359Z,1.63
2022-08-02T21:14:08.544Z,2.57
2022-08-02T21:16:36.777Z,2.13
2022-08-02T21:19:07.950Z,2.17
2022-08-02T21:21:37.300Z,1.93
2022-08-02T21:24:05.658Z,1.97
2022-08-02T21:26:34.504Z,3.10
2022-08-02T21:29:03.785Z,2.70
2022-08-02T21:31:35.880Z,1.93
2022-08-02T21:34:19.228Z,1.97
2022-08-02T21:36:50.599Z,1.80
2022-08-02T21:39:18.483Z,1.70
2022-08-02T21:41:47.485Z,2.20
2022-08-02T21:44:16.386Z,2.30
2022-08-02T21:46:45.421Z,1.80
2022-08-02T21:49:13.433Z,1.73
2022-08-02T21:51:42.787Z,1.90
2022-08-02T21:54:17.541Z,2.00
2022-08-02T21:56:48.425Z,2.17
2022-08-02T21:59:17.066Z,2.57
2022-08-02T22:01:53.024Z,2.67
2022-08-02T22:04:21.845Z,2.07
2022-08-02T22:06:49.576Z,2.47
2022-08-02T22:09:42.193Z,2.10
2022-08-02T22:12:09.834Z,2.10
2022-08-02T22:14:39.634Z,2.50
2022-08-02T22:17:08.540Z,2.10
2022-08-02T22:19:36.986Z,2.03
2022-08-02T22:22:04.720Z,1.80
2022-08-02T22:24:32.244Z,2.17
2022-08-02T22:26:59.770Z,2.13
2022-08-02T22:29:31.342Z,2.20
2022-08-02T22:31:58.833Z,2.13
2022-08-02T22:34:37.005Z,2.40
2022-08-02T22:38:16.413Z,2.30
2022-08-02T22:40:08.685Z,1.73
2022-08-02T22:42:40.147Z,2.00
2022-08-02T22:45:10.815Z,3.20
2022-08-02T22:47:51.160Z,2.50
2022-08-02T22:50:19.398Z,2.33
2022-08-02T22:52:56.614Z,2.13
2022-08-02T22:55:52.300Z,2.00
2022-08-02T22:58:51.032Z,1.80
2022-08-02T22:59:02.071Z,1.23
2022-08-02T23:01:31.928Z,2.13
2022-08-02T23:04:06.408Z,2.00
2022-08-02T23:06:55.185Z,1.70
2022-08-02T23:09:31.496Z,1.93
2022-08-02T23:12:17.724Z,1.90
2022-08-02T23:14:45.849Z,1.93
2022-08-02T23:17:39.564Z,1.70
2022-08-02T23:20:10.764Z,1.90
2022-08-02T23:22:39.119Z,2.20
2022-08-02T23:25:08.477Z,1.93
2022-08-02T23:27:36.691Z,1.90
2022-08-02T23:30:06.251Z,1.90
2022-08-02T23:32:35.388Z,1.97
2022-08-02T23:35:09.198Z,1.63
2022-08-02T23:38:00.086Z,1.77
2022-08-02T23:40:39.790Z,2.00
2022-08-02T23:43:14.112Z,2.20
2022-08-02T23:45:43.810Z,2.10
2022-08-02T23:48:12.631Z,1.60
2022-08-02T23:50:40.427Z,1.80
2022-08-02T23:53:07.963Z,1.90
2022-08-02T23:55:35.431Z,1.87
2022-08-02T23:58:02.965Z,1.97
